Time;durP1;ratioP1;P1;durP2;ratioP2;P2;SDS_P1;SDS_P2;PMS_P1;PMS_P2;Temp;Humidity;BMP_temperature;BMP_pressure;BME280_temperature;BME280_humidity;BME280_pressure;Samples;Min_cycle;Max_cycle;Signal;HPM_P1;HPM_P2
2021/07/31 00:00:36;;;;;;;17.92;10.77;;;25.60;99.90;;;;;;4931195;29;20040;-94
2021/07/31 00:03:20;;;;;;;21.52;10.57;;;25.60;99.90;;;;;;4916691;29;20037;-93
2021/07/31 00:05:45;;;;;;;17.40;10.25;;;25.60;99.90;;;;;;4930976;29;20064;-95
2021/07/31 00:08:46;;;;;;;25.23;10.48;;;25.60;99.90;;;;;;4927399;29;20064;-92
2021/07/31 00:11:18;;;;;;;18.58;10.23;;;25.60;99.90;;;;;;4929142;29;20055;-94
2021/07/31 00:13:44;;;;;;;22.75;12.23;;;25.60;99.90;;;;;;4920784;29;20044;-87
2021/07/31 00:16:36;;;;;;;15.98;10.85;;;25.60;99.90;;;;;;4922649;29;20075;-89
2021/07/31 00:19:04;;;;;;;15.88;10.35;;;25.60;99.90;;;;;;4915821;29;20043;-90
2021/07/31 00:21:29;;;;;;;26.02;11.60;;;25.60;99.90;;;;;;4913611;29;20048;-94
2021/07/31 00:24:10;;;;;;;20.10;9.38;;;25.60;99.90;;;;;;4917642;29;20032;-91
2021/07/31 00:26:36;;;;;;;16.98;10.65;;;25.60;99.90;;;;;;4916268;29;20056;-92
2021/07/31 00:29:07;;;;;;;17.83;10.75;;;25.60;99.90;;;;;;4909968;29;20060;-88
2021/07/31 00:31:33;;;;;;;18.90;11.05;;;25.60;99.90;;;;;;4926686;29;20044;-90
2021/07/31 00:33:59;;;;;;;23.33;11.02;;;25.70;99.90;;;;;;4925536;29;20047;-95
2021/07/31 00:36:33;;;;;;;20.00;10.95;;;25.70;99.90;;;;;;4909073;29;20504;-92
2021/07/31 00:38:59;;;;;;;22.00;10.75;;;25.80;99.90;;;;;;4932071;29;20106;-90
2021/07/31 00:41:25;;;;;;;25.55;9.93;;;25.80;99.90;;;;;;4911620;29;20541;-93
2021/07/31 00:44:10;;;;;;;15.70;8.15;;;25.80;99.90;;;;;;4916326;29;20469;-93
2021/07/31 00:46:46;;;;;;;16.15;9.57;;;25.80;99.90;;;;;;4922430;29;20509;-88
2021/07/31 00:49:23;;;;;;;15.25;9.70;;;25.90;99.90;;;;;;4937253;29;20044;-87
2021/07/31 00:51:57;;;;;;;33.30;9.40;;;25.90;99.90;;;;;;4923069;29;20036;-90
2021/07/31 00:54:23;;;;;;;16.65;9.45;;;25.90;99.90;;;;;;4917776;29;20032;-90
2021/07/31 00:56:48;;;;;;;17.20;9.85;;;25.80;99.90;;;;;;4919936;29;20040;-94
2021/07/31 00:59:17;;;;;;;22.42;9.07;;;25.80;99.90;;;;;;4903999;29;20501;-92
2021/07/31 01:01:46;;;;;;;20.35;8.88;;;25.80;99.90;;;;;;4920714;29;20032;-94
2021/07/31 01:04:18;;;;;;;24.42;9.75;;;25.80;99.90;;;;;;4920596;29;20039;-92
2021/07/31 01:06:47;;;;;;;20.08;10.00;;;25.80;99.90;;;;;;4916427;29;20491;-90
2021/07/31 01:09:19;;;;;;;16.45;8.65;;;25.80;99.90;;;;;;4920954;29;20107;-93
2021/07/31 01:11:44;;;;;;;22.58;9.07;;;25.80;99.90;;;;;;4918069;29;20034;-93
2021/07/31 01:14:10;;;;;;;18.85;9.25;;;25.80;99.90;;;;;;4910179;29;20032;-94
2021/07/31 01:16:36;;;;;;;20.02;9.18;;;25.80;99.90;;;;;;4909036;29;20095;-89
2021/07/31 01:19:02;;;;;;;22.48;9.18;;;25.80;99.90;;;;;;4923576;29;20749;-93
2021/07/31 01:22:00;;;;;;;14.52;8.90;;;25.80;99.90;;;;;;4904693;29;20044;-91
2021/07/31 01:24:31;;;;;;;18.30;9.50;;;25.90;99.90;;;;;;4872970;29;20033;-94
2021/07/31 01:26:57;;;;;;;21.65;9.68;;;25.90;99.90;;;;;;4921031;29;20042;-94
2021/07/31 01:29:23;;;;;;;18.15;8.68;;;25.90;99.90;;;;;;4915974;29;20032;-94
2021/07/31 01:31:49;;;;;;;20.20;9.27;;;25.90;99.90;;;;;;4898170;29;20044;-95
2021/07/31 01:34:14;;;;;;;18.50;9.02;;;25.90;99.90;;;;;;4906499;29;20066;-91
2021/07/31 01:36:40;;;;;;;15.68;8.38;;;25.90;99.90;;;;;;4920641;29;20043;-93
2021/07/31 01:39:06;;;;;;;14.27;8.60;;;25.90;99.90;;;;;;4919787;29;20077;-92
2021/07/31 01:41:32;;;;;;;20.00;8.73;;;25.90;99.90;;;;;;4920256;29;20036;-93
2021/07/31 01:43:58;;;;;;;14.13;9.20;;;26.00;99.90;;;;;;4920435;29;20043;-93
2021/07/31 01:46:24;;;;;;;15.02;8.23;;;26.00;99.90;;;;;;4920627;29;20382;-93
2021/07/31 01:48:58;;;;;;;23.05;9.43;;;25.90;99.90;;;;;;4903457;29;20037;-93
2021/07/31 01:51:23;;;;;;;21.33;9.65;;;25.90;99.90;;;;;;4920315;29;20040;-92
2021/07/31 01:53:50;;;;;;;19.60;9.70;;;25.80;99.90;;;;;;4903704;29;20568;-94
2021/07/31 01:56:21;;;;;;;18.65;8.80;;;25.80;99.90;;;;;;4903538;29;20036;-93
2021/07/31 01:58:53;;;;;;;17.38;9.30;;;25.70;99.90;;;;;;4917053;29;20051;-91
2021/07/31 02:01:19;;;;;;;14.93;8.48;;;25.70;99.90;;;;;;4912347;29;20036;-92
2021/07/31 02:03:45;;;;;;;16.25;8.95;;;25.60;99.90;;;;;;4919729;29;20028;-92
2021/07/31 02:06:14;;;;;;;16.73;8.65;;;25.60;99.90;;;;;;4919727;29;20050;-95
2021/07/31 02:08:45;;;;;;;17.65;8.82;;;25.60;99.90;;;;;;4920114;29;20092;-91
2021/07/31 02:11:11;;;;;;;;;;;25.60;99.90;;;;;;4911936;29;20119;-93
2021/07/31 02:14:16;;;;;;;17.95;9.45;;;25.50;99.90;;;;;;4910792;29;19907;-92
2021/07/31 02:20:06;;;;;;;21.67;9.30;;;25.50;99.90;;;;;;4913093;29;20044;-87
2021/07/31 02:22:38;;;;;;;12.07;8.90;;;25.30;99.90;;;;;;4918247;29;20044;-88
2021/07/31 02:25:04;;;;;;;14.55;8.30;;;25.30;99.90;;;;;;4918022;29;20040;-88
2021/07/31 02:27:30;;;;;;;14.88;8.32;;;25.30;99.90;;;;;;4900562;29;20047;-87
2021/07/31 02:29:55;;;;;;;14.95;9.45;;;25.20;99.90;;;;;;4916344;29;20040;-88
2021/07/31 02:32:21;;;;;;;18.65;8.63;;;25.20;99.90;;;;;;4918817;29;20032;-88
2021/07/31 02:34:49;;;;;;;13.25;8.07;;;25.10;99.90;;;;;;4901906;29;20123;-87
2021/07/31 02:37:15;;;;;;;11.45;8.75;;;25.10;99.90;;;;;;4901762;29;20062;-88
2021/07/31 02:39:40;;;;;;;14.98;8.63;;;25.10;99.90;;;;;;4901374;29;20028;-91
2021/07/31 02:42:06;;;;;;;16.38;9.32;;;25.10;99.90;;;;;;4906164;29;20462;-91
2021/07/31 02:44:34;;;;;;;14.93;8.38;;;25.00;99.90;;;;;;4900719;29;20039;-88
2021/07/31 02:46:59;;;;;;;10.63;7.90;;;25.00;99.90;;;;;;4917448;29;20083;-89
2021/07/31 02:49:25;;;;;;;13.38;7.43;;;25.00;99.90;;;;;;4900662;29;20044;-87
2021/07/31 02:51:53;;;;;;;13.45;7.53;;;25.00;99.90;;;;;;4910480;29;20037;-94
2021/07/31 02:54:31;;;;;;;16.00;8.55;;;25.00;99.90;;;;;;4898422;29;20040;-88
2021/07/31 02:56:57;;;;;;;18.48;8.50;;;25.00;99.90;;;;;;4917151;29;20044;-89
2021/07/31 02:59:35;;;;;;;10.15;7.05;;;25.00;99.90;;;;;;4916761;29;20048;-87
2021/07/31 03:02:04;;;;;;;17.95;8.95;;;25.00;99.90;;;;;;4899133;29;20040;-88
2021/07/31 03:04:36;;;;;;;13.60;8.07;;;24.90;99.90;;;;;;4916935;29;20051;-88
2021/07/31 03:07:01;;;;;;;15.02;7.40;;;25.00;99.90;;;;;;4900599;29;20512;-87
2021/07/31 03:09:36;;;;;;;12.27;8.25;;;25.10;99.90;;;;;;4909761;29;20040;-87
2021/07/31 03:12:05;;;;;;;21.77;7.85;;;25.10;99.90;;;;;;4899463;29;20150;-90
2021/07/31 03:14:49;;;;;;;13.43;8.40;;;25.10;99.90;;;;;;4899698;29;20500;-87
2021/07/31 03:17:23;;;;;;;16.60;8.38;;;25.10;99.90;;;;;;4886765;29;20074;-90
2021/07/31 03:20:06;;;;;;;14.70;8.82;;;25.10;99.90;;;;;;4900502;29;20036;-91
2021/07/31 03:22:35;;;;;;;13.00;7.93;;;25.10;99.90;;;;;;4916806;29;20068;-91
2021/07/31 03:28:51;;;;;;;17.35;8.23;;;25.20;99.90;;;;;;4834757;29;20149;-91
2021/07/31 03:34:58;;;;;;;19.88;8.43;;;25.30;99.90;;;;;;4786052;29;20093;-90
2021/07/31 03:37:27;;;;;;;14.88;8.13;;;25.30;99.90;;;;;;4798798;29;20050;-90
2021/07/31 03:40:29;;;;;;;16.38;8.43;;;25.30;99.90;;;;;;4793351;29;20569;-88
2021/07/31 03:42:55;;;;;;;15.25;7.20;;;25.30;99.90;;;;;;4804329;29;20540;-88
2021/07/31 03:52:55;;;;;;;16.27;7.43;;;25.30;99.90;;;;;;4911374;29;20051;-89
2021/07/31 04:00:56;;;;;;;17.45;8.10;;;25.30;99.90;;;;;;4916196;29;20043;-89
2021/07/31 04:03:28;;;;;;;15.90;7.35;;;25.40;99.90;;;;;;4911394;29;20036;-90
2021/07/31 04:06:06;;;;;;;13.82;8.07;;;25.40;99.90;;;;;;4908153;29;20031;-91
2021/07/31 04:08:38;;;;;;;14.98;7.75;;;25.40;99.90;;;;;;4899030;29;20366;-88
2021/07/31 04:13:47;;;;;;;12.90;7.40;;;25.40;99.90;;;;;;2626855;27;20049;-91
2021/07/31 04:16:13;;;;;;;18.15;8.60;;;25.50;99.90;;;;;;4896499;29;20040;-90
2021/07/31 04:19:08;;;;;;;17.85;7.40;;;25.40;99.90;;;;;;4900203;29;20043;-89
2021/07/31 04:21:33;;;;;;;27.08;8.27;;;25.50;99.90;;;;;;4877184;29;20118;-87
2021/07/31 04:24:11;;;;;;;17.85;7.57;;;25.50;99.90;;;;;;4897217;29;20595;-91
2021/07/31 04:30:35;;;;;;;13.02;7.35;;;25.50;99.90;;;;;;4904406;29;20528;-87
2021/07/31 04:33:19;;;;;;;15.60;7.60;;;25.50;99.90;;;;;;4899202;29;20123;-87
2021/07/31 04:35:44;;;;;;;18.50;7.78;;;25.50;99.90;;;;;;4898827;29;20036;-91
2021/07/31 04:38:10;;;;;;;19.48;7.95;;;25.50;99.90;;;;;;4900113;29;20047;-94
2021/07/31 04:40:36;;;;;;;12.93;7.00;;;25.60;99.90;;;;;;4910730;29;20028;-94
2021/07/31 04:43:02;;;;;;;15.90;7.47;;;25.60;99.90;;;;;;4903483;29;20045;-94
2021/07/31 04:45:31;;;;;;;10.30;7.28;;;25.70;99.90;;;;;;4897820;29;20031;-86
2021/07/31 04:47:57;;;;;;;23.52;8.30;;;25.80;99.90;;;;;;4873529;29;20047;-84
2021/07/31 04:50:22;;;;;;;8.95;7.15;;;25.90;99.90;;;;;;4890668;29;20029;-86
2021/07/31 04:52:48;;;;;;;17.98;8.35;;;26.10;99.90;;;;;;4893442;29;20394;-85
2021/07/31 04:55:13;;;;;;;14.90;7.78;;;26.20;99.90;;;;;;4892736;29;20028;-87
2021/07/31 04:57:39;;;;;;;18.38;7.95;;;26.40;99.90;;;;;;4897967;29;20418;-91
2021/07/31 05:00:06;;;;;;;13.73;7.22;;;26.60;99.90;;;;;;4889166;29;20501;-92
2021/07/31 05:02:47;;;;;;;15.35;6.90;;;26.70;99.90;;;;;;4896580;29;20402;-89
2021/07/31 05:05:33;;;;;;;11.75;7.10;;;27.00;99.90;;;;;;4899958;29;20172;-93
2021/07/31 05:10:54;;;;;;;12.40;6.97;;;27.30;99.90;;;;;;4883853;23;20075;-88
2021/07/31 05:13:23;;;;;;;29.35;7.45;;;27.40;99.90;;;;;;4865661;29;20045;-91
2021/07/31 05:15:49;;;;;;;14.32;6.82;;;27.70;99.90;;;;;;4832937;29;20045;-92
2021/07/31 05:18:21;;;;;;;12.85;7.18;;;28.10;99.90;;;;;;4844524;29;20045;-88
2021/07/31 05:20:46;;;;;;;13.63;7.80;;;29.10;99.90;;;;;;4848088;29;20038;-94
2021/07/31 05:23:13;;;;;;;18.85;5.90;;;30.70;99.90;;;;;;4835372;29;20029;-91
2021/07/31 05:25:44;;;;;;;16.70;6.85;;;32.30;99.20;;;;;;4845358;29;20034;-90
2021/07/31 05:28:25;;;;;;;11.25;6.10;;;33.40;97.30;;;;;;4839465;29;20037;-90
2021/07/31 05:34:12;;;;;;;12.07;6.57;;;35.20;94.10;;;;;;5072701;23;20467;-89
2021/07/31 05:36:41;;;;;;;10.07;6.03;;;36.00;93.00;;;;;;4899063;29;20045;-92
2021/07/31 05:39:07;;;;;;;10.77;5.82;;;35.60;92.60;;;;;;4898517;29;20652;-88
2021/07/31 05:41:32;;;;;;;14.48;6.28;;;35.90;92.20;;;;;;4890365;29;20069;-88
2021/07/31 05:43:58;;;;;;;12.07;6.78;;;36.60;91.20;;;;;;4892538;29;20032;-88
2021/07/31 05:50:19;;;;;;;12.02;6.75;;;36.90;90.40;;;;;;4888027;29;20068;-93
2021/07/31 05:52:45;;;;;;;14.93;5.75;;;37.90;88.00;;;;;;4886883;29;20120;-87
2021/07/31 05:55:29;;;;;;;11.68;5.78;;;38.10;86.20;;;;;;4899646;29;20553;-92
2021/07/31 05:58:05;;;;;;;17.67;6.28;;;38.50;85.60;;;;;;4897628;29;20131;-88
2021/07/31 06:00:30;;;;;;;11.13;5.07;;;38.90;84.10;;;;;;4897618;29;20498;-91
2021/07/31 06:02:56;;;;;;;8.75;5.20;;;39.30;82.70;;;;;;4898448;29;20080;-88
2021/07/31 06:05:31;;;;;;;18.92;5.35;;;39.30;80.90;;;;;;4901658;29;20032;-92
2021/07/31 06:07:59;;;;;;;10.05;4.75;;;39.90;79.30;;;;;;4902479;29;20037;-88
2021/07/31 06:13:41;;;;;;;10.45;5.55;;;40.60;77.60;;;;;;4927201;23;20060;-90
2021/07/31 06:16:19;;;;;;;11.77;4.80;;;40.40;76.40;;;;;;4870517;29;20418;-90
2021/07/31 06:18:45;;;;;;;8.82;4.55;;;40.60;76.60;;;;;;4879912;29;20075;-88
2021/07/31 06:24:33;;;;;;;9.80;5.10;;;39.40;77.80;;;;;;4875797;29;20040;-86
2021/07/31 06:26:58;;;;;;;18.77;5.00;;;39.10;77.90;;;;;;4882315;29;20037;-93
2021/07/31 06:29:52;;;;;;;12.95;5.30;;;39.30;78.20;;;;;;4880509;29;20037;-87
2021/07/31 06:32:25;;;;;;;13.35;5.30;;;39.10;78.20;;;;;;4873345;29;20125;-89
2021/07/31 06:34:51;;;;;;;12.93;5.10;;;37.60;80.80;;;;;;4878062;29;20048;-86
2021/07/31 06:37:16;;;;;;;7.47;5.20;;;37.40;80.40;;;;;;4880670;29;20434;-83
2021/07/31 06:39:42;;;;;;;11.23;5.90;;;37.10;81.60;;;;;;4872754;23;20053;-85
2021/07/31 06:42:09;;;;;;;11.73;5.45;;;37.30;81.40;;;;;;4898137;29;20040;-88
2021/07/31 06:44:35;;;;;;;12.63;5.47;;;36.50;82.60;;;;;;4898768;29;20055;-85
2021/07/31 06:47:00;;;;;;;16.20;5.32;;;35.70;83.30;;;;;;4902063;29;20397;-85
2021/07/31 06:49:26;;;;;;;9.77;5.00;;;35.10;84.60;;;;;;4887777;29;20484;-85
2021/07/31 06:51:52;;;;;;;12.60;5.25;;;34.70;85.40;;;;;;4896920;29;20044;-85
2021/07/31 06:54:18;;;;;;;7.68;5.40;;;34.40;86.40;;;;;;4893185;29;20447;-86
2021/07/31 06:56:44;;;;;;;11.95;5.32;;;34.20;87.30;;;;;;4891311;29;20132;-82
2021/07/31 06:59:09;;;;;;;11.98;5.43;;;33.90;87.60;;;;;;4897101;29;20039;-81
2021/07/31 07:01:36;;;;;;;12.48;5.68;;;33.90;88.80;;;;;;4897383;29;20481;-82
2021/07/31 07:04:02;;;;;;;17.30;5.95;;;33.90;90.00;;;;;;4893736;29;20036;-85
2021/07/31 07:06:28;;;;;;;10.93;5.10;;;34.50;89.40;;;;;;4895350;29;20131;-85
2021/07/31 07:08:53;;;;;;;12.55;5.60;;;35.90;86.70;;;;;;4898412;29;20039;-84
2021/07/31 07:11:19;;;;;;;15.55;5.53;;;36.80;85.30;;;;;;4900751;29;20037;-83
2021/07/31 07:13:45;;;;;;;11.10;5.05;;;36.90;84.90;;;;;;4897132;29;20071;-84
2021/07/31 07:16:10;;;;;;;11.98;4.88;;;36.50;85.60;;;;;;4897435;29;20041;-84
2021/07/31 07:18:36;;;;;;;7.60;4.75;;;36.50;85.70;;;;;;4895479;29;20253;-83
2021/07/31 07:21:07;;;;;;;11.00;4.68;;;37.00;84.30;;;;;;4895987;29;20041;-84
2021/07/31 07:23:33;;;;;;;7.45;4.22;;;37.40;83.10;;;;;;4897126;29;20032;-84
2021/07/31 07:25:59;;;;;;;7.82;4.32;;;37.90;82.70;;;;;;4896727;29;20060;-84
2021/07/31 07:28:25;;;;;;;12.85;5.25;;;38.50;81.10;;;;;;4895095;29;20075;-83
2021/07/31 07:30:51;;;;;;;14.95;5.25;;;39.10;79.20;;;;;;4896295;29;20499;-84
2021/07/31 07:33:16;;;;;;;5.55;3.80;;;40.00;77.80;;;;;;4897313;29;20071;-84
2021/07/31 07:35:42;;;;;;;8.05;3.70;;;40.50;74.20;;;;;;4898010;29;20032;-84
2021/07/31 07:38:08;;;;;;;6.82;3.58;;;41.20;73.80;;;;;;4897584;29;20120;-85
2021/07/31 07:40:34;;;;;;;5.30;3.22;;;41.50;71.80;;;;;;4897433;29;20077;-86
2021/07/31 07:43:01;;;;;;;8.13;3.75;;;41.20;71.80;;;;;;4897882;29;20088;-85
2021/07/31 07:45:27;;;;;;;18.40;4.43;;;40.80;71.80;;;;;;4896349;29;20123;-83
2021/07/31 07:47:53;;;;;;;15.57;4.15;;;40.60;72.70;;;;;;4897336;29;20028;-83
2021/07/31 07:50:18;;;;;;;14.27;4.35;;;40.40;72.40;;;;;;4897789;29;20041;-86
2021/07/31 07:52:44;;;;;;;6.78;4.20;;;39.60;73.40;;;;;;4895918;29;20035;-82
2021/07/31 07:55:10;;;;;;;7.65;4.43;;;38.20;73.90;;;;;;4894048;29;20454;-83
2021/07/31 07:57:40;;;;;;;7.95;5.05;;;37.00;75.80;;;;;;4880034;29;20040;-84
2021/07/31 08:00:07;;;;;;;6.63;4.67;;;36.30;77.70;;;;;;4895811;29;20073;-85
2021/07/31 08:02:33;;;;;;;14.13;4.63;;;36.70;78.30;;;;;;4898186;29;20067;-82
2021/07/31 08:04:59;;;;;;;12.55;5.55;;;37.80;77.00;;;;;;4896077;29;20033;-83
2021/07/31 08:07:25;;;;;;;20.70;4.70;;;38.90;76.20;;;;;;4895702;29;20041;-84
2021/07/31 08:09:51;;;;;;;10.50;4.45;;;39.80;74.70;;;;;;4896274;29;20036;-83
2021/07/31 08:12:17;;;;;;;15.57;4.63;;;40.60;73.60;;;;;;4895695;29;20427;-79
2021/07/31 08:14:42;;;;;;;13.20;5.05;;;40.80;74.00;;;;;;4895955;29;20021;-81
2021/07/31 08:17:08;;;;;;;10.80;4.32;;;41.00;73.30;;;;;;4895899;29;20577;-80
2021/07/31 08:19:34;;;;;;;9.25;4.00;;;41.00;73.30;;;;;;4891754;29;20032;-81
2021/07/31 08:22:00;;;;;;;5.97;4.10;;;40.80;73.30;;;;;;4894033;29;20040;-85
2021/07/31 08:24:25;;;;;;;13.45;4.07;;;40.20;73.40;;;;;;4890856;29;20060;-80
2021/07/31 08:26:51;;;;;;;11.10;3.78;;;39.60;74.60;;;;;;4896656;29;20032;-82
2021/07/31 08:29:17;;;;;;;6.43;3.65;;;39.20;74.60;;;;;;4894067;29;20021;-80
2021/07/31 08:31:43;;;;;;;12.95;4.38;;;38.70;75.10;;;;;;4896486;29;20096;-83
2021/07/31 08:34:09;;;;;;;16.90;4.85;;;38.20;76.50;;;;;;4896271;29;20033;-79
2021/07/31 08:36:36;;;;;;;8.20;4.40;;;37.80;77.60;;;;;;4896511;29;20080;-79
2021/07/31 08:39:02;;;;;;;11.30;4.72;;;37.20;79.00;;;;;;4896888;29;20051;-79
2021/07/31 08:41:28;;;;;;;16.80;5.13;;;36.90;80.20;;;;;;4895736;29;20044;-81
2021/07/31 08:43:57;;;;;;;16.20;4.00;;;36.60;81.30;;;;;;4894695;29;20549;-82
2021/07/31 08:46:23;;;;;;;8.93;4.68;;;36.50;81.60;;;;;;4890549;29;20048;-84
2021/07/31 08:48:50;;;;;;;9.27;4.78;;;36.30;82.10;;;;;;4888383;29;20525;-82
2021/07/31 08:51:16;;;;;;;9.65;4.50;;;36.20;82.60;;;;;;4892924;29;20482;-84
2021/07/31 08:53:44;;;;;;;13.00;4.93;;;36.00;83.00;;;;;;4896011;29;20032;-87
2021/07/31 08:56:10;;;;;;;9.23;4.25;;;35.90;84.10;;;;;;4893543;29;20120;-84
2021/07/31 08:58:40;;;;;;;10.43;4.70;;;35.80;85.10;;;;;;4895136;29;20113;-81
2021/07/31 09:01:06;;;;;;;9.73;5.18;;;35.80;85.60;;;;;;4899206;29;20029;-82
2021/07/31 09:03:43;;;;;;;8.57;4.78;;;35.60;85.60;;;;;;4898330;29;20394;-83
2021/07/31 09:06:23;;;;;;;6.03;4.20;;;35.50;86.80;;;;;;4897935;29;20052;-83
2021/07/31 09:08:53;;;;;;;13.70;5.30;;;35.30;86.60;;;;;;4898934;29;20111;-88
2021/07/31 09:11:19;;;;;;;12.93;4.25;;;35.30;86.80;;;;;;4898895;29;20112;-86
2021/07/31 09:13:45;;;;;;;8.73;4.90;;;35.20;86.50;;;;;;4896681;29;20036;-87
2021/07/31 09:16:11;;;;;;;8.45;4.57;;;35.20;86.10;;;;;;4900238;29;20028;-83
2021/07/31 09:18:43;;;;;;;10.77;4.85;;;35.30;86.00;;;;;;4899573;29;20617;-85
2021/07/31 09:21:12;;;;;;;10.65;4.63;;;35.20;86.10;;;;;;4899398;29;20024;-87
2021/07/31 09:23:44;;;;;;;16.30;5.15;;;35.20;86.80;;;;;;4898749;29;20036;-86
2021/07/31 09:26:31;;;;;;;15.43;4.82;;;35.10;86.40;;;;;;4897771;29;20032;-85
2021/07/31 09:29:09;;;;;;;12.98;5.45;;;34.90;86.70;;;;;;4897937;29;20044;-82
2021/07/31 09:31:51;;;;;;;13.20;5.32;;;34.60;87.20;;;;;;4899595;29;20033;-85
2021/07/31 09:34:44;;;;;;;10.82;5.35;;;34.50;88.30;;;;;;4894200;29;20423;-89
2021/07/31 09:37:18;;;;;;;11.25;5.20;;;34.50;87.90;;;;;;4894329;29;20056;-84
2021/07/31 09:39:48;;;;;;;11.68;5.20;;;34.50;88.80;;;;;;4899080;29;20658;-83
2021/07/31 09:42:34;;;;;;;10.80;5.00;;;34.50;88.70;;;;;;4917528;29;20446;-86
2021/07/31 09:45:11;;;;;;;9.70;5.35;;;34.50;88.60;;;;;;4916205;29;20508;-82
2021/07/31 09:47:57;;;;;;;11.82;5.15;;;34.30;88.70;;;;;;4916742;29;20123;-83
2021/07/31 09:50:37;;;;;;;16.27;5.63;;;34.30;89.40;;;;;;4912478;29;20036;-90
2021/07/31 09:53:08;;;;;;;14.60;4.88;;;34.30;90.00;;;;;;4900212;29;20043;-84
2021/07/31 09:55:36;;;;;;;8.05;4.97;;;34.30;90.10;;;;;;4917555;29;20047;-82
2021/07/31 09:58:05;;;;;;;8.52;4.60;;;34.30;90.10;;;;;;4916223;29;20071;-83
2021/07/31 10:00:31;;;;;;;12.00;5.18;;;34.30;90.40;;;;;;4917855;29;20485;-83
2021/07/31 10:02:57;;;;;;;7.93;4.70;;;34.20;90.50;;;;;;4916837;29;20051;-81
2021/07/31 10:05:23;;;;;;;12.45;4.78;;;34.10;90.70;;;;;;4917861;29;20500;-86
2021/07/31 10:07:49;;;;;;;15.00;5.68;;;34.10;90.80;;;;;;4916797;29;20072;-82
2021/07/31 10:10:17;;;;;;;7.63;5.10;;;34.10;90.80;;;;;;4916959;29;20067;-80
2021/07/31 10:12:43;;;;;;;12.30;5.55;;;33.90;91.00;;;;;;4917336;29;20075;-82
2021/07/31 10:15:10;;;;;;;10.93;5.32;;;33.80;91.30;;;;;;4899624;29;20487;-82
2021/07/31 10:17:39;;;;;;;17.27;5.28;;;33.80;91.60;;;;;;4917055;29;20054;-86
2021/07/31 10:20:06;;;;;;;13.02;5.93;;;33.70;91.60;;;;;;4916310;29;20024;-81
2021/07/31 10:22:44;;;;;;;11.23;5.75;;;33.60;92.20;;;;;;4916247;29;20083;-83
2021/07/31 10:25:17;;;;;;;9.77;5.65;;;33.50;92.70;;;;;;4916052;29;20079;-87
2021/07/31 10:27:45;;;;;;;10.73;5.90;;;33.40;93.50;;;;;;4911267;29;20032;-80
2021/07/31 10:30:27;;;;;;;8.98;5.00;;;33.30;93.80;;;;;;4909373;29;20040;-82
2021/07/31 10:32:53;;;;;;;8.75;5.60;;;33.30;94.10;;;;;;4915266;29;20029;-82
2021/07/31 10:35:23;;;;;;;14.25;6.03;;;33.30;94.80;;;;;;4915437;29;20047;-83
2021/07/31 10:37:50;;;;;;;15.27;6.38;;;33.20;94.90;;;;;;4912148;29;20048;-83
2021/07/31 10:40:32;;;;;;;12.65;5.60;;;33.10;95.10;;;;;;4907100;29;20032;-85
2021/07/31 10:42:58;;;;;;;10.50;5.60;;;33.10;95.70;;;;;;4913293;29;20032;-84
2021/07/31 10:45:26;;;;;;;19.58;7.13;;;33.00;95.60;;;;;;4916051;29;20035;-84
2021/07/31 10:47:56;;;;;;;11.25;6.25;;;32.90;96.20;;;;;;4916343;29;20570;-84
2021/07/31 10:50:31;;;;;;;13.40;6.50;;;32.70;96.20;;;;;;4916725;29;20497;-86
2021/07/31 10:53:00;;;;;;;16.08;6.40;;;32.60;96.30;;;;;;4916177;29;20050;-83
2021/07/31 10:55:47;;;;;;;12.93;6.07;;;32.60;96.30;;;;;;4916944;29;20044;-86
2021/07/31 10:58:19;;;;;;;9.55;6.03;;;32.70;96.20;;;;;;4916427;29;20063;-83
2021/07/31 11:00:47;;;;;;;10.75;6.30;;;32.70;96.60;;;;;;4898529;29;20032;-84
2021/07/31 11:03:18;;;;;;;14.68;6.18;;;32.70;96.50;;;;;;4915856;29;20036;-87
2021/07/31 11:05:49;;;;;;;13.93;6.07;;;32.80;96.60;;;;;;4908912;29;20490;-86
2021/07/31 11:08:47;;;;;;;14.57;7.25;;;32.70;97.00;;;;;;4913090;29;20032;-85
2021/07/31 11:11:15;;;;;;;11.00;6.55;;;32.80;97.00;;;;;;4898960;29;20059;-84
2021/07/31 11:13:41;;;;;;;13.98;6.03;;;32.70;97.50;;;;;;4916130;29;20030;-85
2021/07/31 11:16:07;;;;;;;8.00;6.25;;;32.60;97.40;;;;;;4914629;29;20557;-85
2021/07/31 11:18:35;;;;;;;12.43;7.18;;;32.70;97.30;;;;;;4897903;29;20039;-84
2021/07/31 11:21:11;;;;;;;10.93;6.28;;;32.60;97.50;;;;;;4913474;29;20041;-83
2021/07/31 11:23:43;;;;;;;28.35;6.43;;;32.50;97.70;;;;;;4915231;29;20042;-83
2021/07/31 11:26:09;;;;;;;9.48;6.10;;;32.50;97.80;;;;;;4913329;29;20028;-83
2021/07/31 11:28:36;;;;;;;9.95;5.90;;;32.50;98.00;;;;;;4897973;29;20029;-86
2021/07/31 11:31:15;;;;;;;15.35;6.80;;;32.50;98.00;;;;;;4914582;29;20024;-85
2021/07/31 11:33:41;;;;;;;13.00;6.72;;;32.40;98.00;;;;;;4914041;29;20123;-84
2021/07/31 11:36:13;;;;;;;15.05;6.85;;;32.50;98.00;;;;;;4905969;29;20112;-82
2021/07/31 11:38:42;;;;;;;13.70;6.47;;;32.50;98.20;;;;;;4895371;29;20544;-85
2021/07/31 11:41:13;;;;;;;18.00;6.57;;;32.50;98.40;;;;;;4914844;29;20442;-84
2021/07/31 11:43:57;;;;;;;13.90;6.93;;;32.50;98.30;;;;;;4915289;29;20381;-83
2021/07/31 11:46:32;;;;;;;13.15;6.22;;;32.50;98.50;;;;;;4909020;29;20031;-84
2021/07/31 11:48:59;;;;;;;13.18;6.25;;;32.50;98.40;;;;;;4911654;29;20032;-85
2021/07/31 11:51:26;;;;;;;19.10;7.65;;;32.40;98.40;;;;;;4915713;29;20036;-84
2021/07/31 11:53:53;;;;;;;11.38;6.55;;;32.40;98.90;;;;;;4914655;29;20028;-83
2021/07/31 11:56:21;;;;;;;13.52;6.85;;;32.30;98.90;;;;;;4915513;29;20487;-83
2021/07/31 11:58:51;;;;;;;15.88;7.18;;;32.30;99.30;;;;;;4917460;29;20036;-85
2021/07/31 12:01:17;;;;;;;14.85;7.75;;;32.30;99.80;;;;;;4915686;29;20043;-85
2021/07/31 12:03:50;;;;;;;18.33;6.13;;;32.20;99.60;;;;;;4898353;29;20398;-85
2021/07/31 12:06:38;;;;;;;14.15;6.22;;;32.10;99.80;;;;;;4898206;29;20036;-83
2021/07/31 12:09:24;;;;;;;13.55;6.75;;;32.10;99.80;;;;;;4914238;29;20430;-83
2021/07/31 12:11:54;;;;;;;16.52;7.72;;;32.00;99.90;;;;;;4915394;29;20032;-83
2021/07/31 12:14:46;;;;;;;19.55;7.30;;;32.00;99.90;;;;;;4915057;29;20072;-83
2021/07/31 12:17:24;;;;;;;14.13;6.38;;;32.00;99.90;;;;;;4906517;29;20056;-83
2021/07/31 12:19:55;;;;;;;16.98;6.20;;;32.10;99.90;;;;;;4898687;29;20028;-81
2021/07/31 12:22:29;;;;;;;19.27;7.25;;;32.10;99.90;;;;;;4909233;29;20549;-81
2021/07/31 12:25:13;;;;;;;14.02;7.97;;;32.10;99.90;;;;;;4915097;29;20500;-81
2021/07/31 12:28:13;;;;;;;12.52;6.15;;;32.20;99.90;;;;;;4911035;29;20047;-81
2021/07/31 12:30:41;;;;;;;17.70;7.78;;;32.20;99.90;;;;;;4871145;29;20048;-81
2021/07/31 12:33:07;;;;;;;8.52;6.30;;;32.30;99.90;;;;;;4914210;29;20055;-81
2021/07/31 12:35:32;;;;;;;13.45;7.05;;;32.30;99.90;;;;;;4914624;29;20036;-82
2021/07/31 12:37:58;;;;;;;8.93;6.18;;;32.30;99.90;;;;;;4915145;29;20146;-82
2021/07/31 12:40:24;;;;;;;20.75;8.07;;;32.20;99.90;;;;;;4914914;29;20052;-82
2021/07/31 12:42:50;;;;;;;13.80;7.30;;;32.20;99.90;;;;;;4915090;29;20595;-84
2021/07/31 12:45:16;;;;;;;15.95;7.00;;;32.20;99.90;;;;;;4914998;29;20044;-83
2021/07/31 12:47:41;;;;;;;11.25;6.25;;;32.20;99.90;;;;;;4914839;29;20153;-83
2021/07/31 12:50:07;;;;;;;15.90;6.90;;;32.20;99.90;;;;;;4915379;29;20393;-83
2021/07/31 12:52:33;;;;;;;14.38;7.15;;;32.20;99.90;;;;;;4914552;29;20024;-84
2021/07/31 12:54:59;;;;;;;16.45;6.75;;;32.10;99.90;;;;;;4914854;29;20036;-83
2021/07/31 12:57:24;;;;;;;11.07;6.43;;;32.10;99.90;;;;;;4914948;29;20123;-83
2021/07/31 12:59:50;;;;;;;13.15;6.68;;;32.10;99.90;;;;;;4915662;29;20032;-81
2021/07/31 13:02:15;;;;;;;11.50;6.40;;;32.10;99.90;;;;;;4905579;29;20051;-84
2021/07/31 13:04:41;;;;;;;16.05;6.80;;;32.10;99.90;;;;;;4899921;29;20508;-81
2021/07/31 13:07:07;;;;;;;14.60;6.60;;;32.10;99.90;;;;;;4914134;29;20063;-83
2021/07/31 13:09:33;;;;;;;14.05;6.43;;;32.10;99.90;;;;;;4914468;29;20079;-82
2021/07/31 13:11:58;;;;;;;10.73;6.18;;;32.00;99.90;;;;;;4914741;29;20040;-82
2021/07/31 13:14:24;;;;;;;11.93;6.38;;;32.00;99.90;;;;;;4910926;29;20111;-82
2021/07/31 13:16:50;;;;;;;9.07;6.05;;;32.00;99.90;;;;;;4914206;29;20043;-84
2021/07/31 13:19:16;;;;;;;19.45;6.82;;;32.00;99.90;;;;;;4914589;29;20042;-82
2021/07/31 13:21:42;;;;;;;13.82;6.53;;;31.90;99.90;;;;;;4914782;29;20032;-84
2021/07/31 13:24:08;;;;;;;14.65;6.47;;;32.00;99.90;;;;;;4914908;29;20608;-83
2021/07/31 13:26:33;;;;;;;25.80;6.70;;;32.10;99.90;;;;;;4914911;29;20055;-84
2021/07/31 13:28:59;;;;;;;15.40;6.30;;;32.20;99.90;;;;;;4914316;29;20039;-84
2021/07/31 13:31:25;;;;;;;16.08;6.50;;;32.20;99.90;;;;;;4910745;29;20040;-82
2021/07/31 13:33:51;;;;;;;9.98;5.80;;;32.30;99.90;;;;;;4913952;29;20035;-83
2021/07/31 13:36:17;;;;;;;15.27;5.90;;;32.20;99.90;;;;;;4914927;29;20044;-83
2021/07/31 13:38:48;;;;;;;9.75;6.55;;;32.10;99.90;;;;;;4901364;29;20383;-82